Time;durP1;ratioP1;P1;durP2;ratioP2;P2;SDS_P1;SDS_P2;PMS_P1;PMS_P2;Temp;Humidity;BMP_temperature;BMP_pressure;BME280_temperature;BME280_humidity;BME280_pressure;Samples;Min_cycle;Max_cycle;Signal;HPM_P1;HPM_P2
2021/07/19 00:00:05;;;;;;;5.57;3.23;;;19.60;99.90;;;;;;4140178;28;20226;-78
2021/07/19 00:02:07;;;;;;;5.57;3.23;;;19.60;99.90;;;;;;4140639;28;20219;-76
2021/07/19 00:04:09;;;;;;;4.70;2.97;;;19.60;99.90;;;;;;4135769;28;20220;-77
2021/07/19 00:06:11;;;;;;;5.97;3.40;;;19.50;99.90;;;;;;4141781;28;20214;-76
2021/07/19 00:08:13;;;;;;;5.37;3.47;;;19.50;99.90;;;;;;4137889;28;20211;-76
2021/07/19 00:10:17;;;;;;;6.00;3.10;;;19.50;99.90;;;;;;4130101;28;20240;-76
2021/07/19 00:12:18;;;;;;;3.27;2.90;;;19.50;99.90;;;;;;4148617;28;20210;-76
2021/07/19 00:14:20;;;;;;;5.77;3.30;;;19.50;99.90;;;;;;4134978;28;20207;-76
2021/07/19 00:16:24;;;;;;;6.00;2.90;;;19.40;99.90;;;;;;4130787;28;20225;-76
2021/07/19 00:18:26;;;;;;;5.97;2.87;;;19.40;99.90;;;;;;4131785;28;20223;-76
2021/07/19 00:20:28;;;;;;;5.73;3.10;;;19.30;99.90;;;;;;4150735;28;20226;-76
2021/07/19 00:22:30;;;;;;;4.23;3.20;;;19.30;99.90;;;;;;4147506;28;20287;-77
2021/07/19 00:24:32;;;;;;;4.77;2.80;;;19.30;99.90;;;;;;4145238;28;20222;-76
2021/07/19 00:26:33;;;;;;;4.80;3.10;;;19.30;99.90;;;;;;4147705;28;20206;-76
2021/07/19 00:28:35;;;;;;;8.53;3.47;;;19.20;99.90;;;;;;4147831;28;20617;-76
2021/07/19 00:30:38;;;;;;;4.57;2.80;;;19.20;99.90;;;;;;4146934;28;20265;-78
2021/07/19 00:32:42;;;;;;;6.30;3.10;;;19.20;99.90;;;;;;4147831;28;20225;-78
2021/07/19 00:34:44;;;;;;;5.07;3.17;;;19.20;99.90;;;;;;4147127;28;20245;-78
2021/07/19 00:36:49;;;;;;;5.30;3.23;;;19.10;99.90;;;;;;4147606;28;20227;-78
2021/07/19 00:38:52;;;;;;;7.33;2.83;;;19.10;99.90;;;;;;4146802;28;20220;-78
2021/07/19 00:40:54;;;;;;;3.83;2.77;;;19.00;99.90;;;;;;4147162;28;20233;-78
2021/07/19 00:42:56;;;;;;;5.20;2.73;;;19.00;99.90;;;;;;4145531;28;20632;-78
2021/07/19 00:44:58;;;;;;;4.00;2.60;;;19.00;99.90;;;;;;4137935;28;20212;-78
2021/07/19 00:47:00;;;;;;;4.00;2.77;;;18.90;99.90;;;;;;4130591;28;20221;-78
2021/07/19 00:49:03;;;;;;;5.13;2.90;;;19.00;99.90;;;;;;4130142;28;20232;-78
2021/07/19 00:51:05;;;;;;;5.27;2.70;;;18.90;99.90;;;;;;4144866;28;20291;-78
2021/07/19 00:53:08;;;;;;;3.87;2.70;;;18.90;99.90;;;;;;4142652;28;20258;-78
2021/07/19 00:55:12;;;;;;;5.27;2.70;;;18.80;99.90;;;;;;4142010;28;20598;-78
2021/07/19 00:57:15;;;;;;;4.57;3.10;;;18.80;99.90;;;;;;4144526;28;20216;-76
2021/07/19 00:59:23;;;;;;;4.23;2.70;;;18.80;99.90;;;;;;4142487;28;20232;-77
2021/07/19 01:01:29;;;;;;;6.40;2.60;;;18.80;99.90;;;;;;4140591;28;20279;-77
2021/07/19 01:03:31;;;;;;;4.50;2.80;;;18.70;99.90;;;;;;4147211;28;20250;-76
2021/07/19 01:05:37;;;;;;;3.90;2.57;;;18.70;99.90;;;;;;4146847;28;20658;-78
2021/07/19 01:07:40;;;;;;;4.47;2.80;;;18.70;99.90;;;;;;4144142;28;20213;-78
2021/07/19 01:09:43;;;;;;;4.80;2.70;;;18.70;99.90;;;;;;4138703;28;20232;-78
2021/07/19 01:11:47;;;;;;;5.10;2.87;;;18.60;99.90;;;;;;4150641;28;20200;-78
2021/07/19 01:13:49;;;;;;;5.53;3.03;;;18.60;99.90;;;;;;4150182;28;20203;-76
2021/07/19 01:15:51;;;;;;;4.90;2.80;;;18.60;99.90;;;;;;4150053;28;20665;-76
2021/07/19 01:17:53;;;;;;;3.83;3.00;;;18.60;99.90;;;;;;4142564;28;20209;-76
2021/07/19 01:19:55;;;;;;;3.83;2.90;;;18.50;99.90;;;;;;4149142;28;20220;-76
2021/07/19 01:22:36;;;;;;;6.27;3.23;;;18.50;99.90;;;;;;4150296;28;20676;-76
2021/07/19 01:24:48;;;;;;;4.50;3.27;;;18.40;99.90;;;;;;4142589;28;20225;-76
2021/07/19 01:27:13;;;;;;;4.23;2.80;;;18.40;99.90;;;;;;4142132;28;20589;-76
2021/07/19 01:29:20;;;;;;;3.87;2.90;;;18.30;99.90;;;;;;4130382;28;20239;-76
2021/07/19 01:31:26;;;;;;;6.97;3.03;;;18.30;99.90;;;;;;4149337;28;20196;-76
2021/07/19 01:33:29;;;;;;;3.83;3.00;;;18.30;99.90;;;;;;4141991;28;20263;-76
2021/07/19 01:35:35;;;;;;;4.20;2.83;;;18.20;99.90;;;;;;4141840;28;20273;-76
2021/07/19 01:37:40;;;;;;;6.10;3.40;;;18.20;99.90;;;;;;4149916;28;20614;-76
2021/07/19 01:39:42;;;;;;;3.60;2.83;;;18.20;99.90;;;;;;4148966;28;20782;-76
2021/07/19 01:41:45;;;;;;;3.90;2.77;;;18.20;99.90;;;;;;4148411;28;20299;-79
2021/07/19 01:43:48;;;;;;;4.33;2.90;;;18.10;99.90;;;;;;4149428;28;20224;-78
2021/07/19 01:45:52;;;;;;;5.30;3.00;;;18.10;99.90;;;;;;4149081;28;20228;-78
2021/07/19 01:47:54;;;;;;;4.10;2.93;;;18.10;99.90;;;;;;4149663;28;20528;-78
2021/07/19 01:49:56;;;;;;;5.17;3.00;;;18.10;99.90;;;;;;4142050;28;20239;-76
2021/07/19 01:51:58;;;;;;;4.70;2.80;;;18.00;99.90;;;;;;4148963;28;20242;-76
2021/07/19 01:54:01;;;;;;;4.30;3.00;;;18.00;99.90;;;;;;4134269;28;20206;-76
2021/07/19 01:56:04;;;;;;;4.27;3.10;;;18.00;99.90;;;;;;4143303;28;20204;-77
2021/07/19 01:58:06;;;;;;;4.67;3.27;;;17.90;99.90;;;;;;4133517;28;20216;-76
2021/07/19 02:00:10;;;;;;;4.97;3.30;;;17.90;99.90;;;;;;4133024;28;20224;-76
2021/07/19 02:02:15;;;;;;;5.40;3.73;;;17.90;99.90;;;;;;4134499;28;20216;-76
2021/07/19 02:04:18;;;;;;;6.30;3.40;;;17.90;99.90;;;;;;4149895;28;20207;-76
2021/07/19 02:06:21;;;;;;;8.17;3.80;;;17.80;99.90;;;;;;4147063;28;20218;-76
2021/07/19 02:08:23;;;;;;;5.33;3.77;;;17.80;99.90;;;;;;4133716;28;20246;-77
2021/07/19 02:10:25;;;;;;;5.97;3.40;;;17.80;99.90;;;;;;4137660;28;20704;-76
2021/07/19 02:12:27;;;;;;;6.17;3.67;;;17.70;99.90;;;;;;4149011;28;20259;-76
2021/07/19 02:14:30;;;;;;;5.93;3.70;;;17.70;99.90;;;;;;4149074;28;20266;-77
2021/07/19 02:16:32;;;;;;;5.87;3.77;;;17.70;99.90;;;;;;4145127;28;20212;-76
2021/07/19 02:18:39;;;;;;;6.10;3.90;;;17.60;99.90;;;;;;4149292;28;20247;-76
2021/07/19 02:20:44;;;;;;;4.83;3.83;;;17.60;99.90;;;;;;4147452;28;20611;-76
2021/07/19 02:22:47;;;;;;;5.63;3.77;;;17.60;99.90;;;;;;4140421;28;20273;-77
2021/07/19 02:24:50;;;;;;;7.37;3.40;;;17.50;99.90;;;;;;4148040;28;20387;-76
2021/07/19 02:26:53;;;;;;;5.10;3.60;;;17.50;99.90;;;;;;4135603;28;20265;-77
2021/07/19 02:28:55;;;;;;;5.50;3.77;;;17.50;99.90;;;;;;4149106;28;20239;-76
2021/07/19 02:31:01;;;;;;;6.40;4.40;;;17.50;99.90;;;;;;4149044;28;20236;-75
2021/07/19 02:33:04;;;;;;;5.93;3.97;;;17.40;99.90;;;;;;4148953;28;20700;-76
2021/07/19 02:35:08;;;;;;;6.47;3.93;;;17.40;99.90;;;;;;4142090;28;20216;-76
2021/07/19 02:37:10;;;;;;;6.00;3.93;;;17.40;99.90;;;;;;4142796;28;20215;-76
2021/07/19 02:39:14;;;;;;;6.13;3.70;;;17.30;99.90;;;;;;4149345;28;20211;-76
2021/07/19 02:41:18;;;;;;;5.57;4.00;;;17.30;99.90;;;;;;4144384;28;20228;-76
2021/07/19 02:43:22;;;;;;;6.03;3.80;;;17.30;99.90;;;;;;4148141;28;20222;-76
2021/07/19 02:45:26;;;;;;;8.13;4.10;;;17.30;99.90;;;;;;4132853;28;20556;-76
2021/07/19 02:47:29;;;;;;;8.23;4.17;;;17.30;99.90;;;;;;4132312;28;20213;-76
2021/07/19 02:49:32;;;;;;;6.57;4.17;;;17.20;99.90;;;;;;4132722;28;20212;-76
2021/07/19 02:51:35;;;;;;;7.33;4.63;;;17.20;99.90;;;;;;4133303;28;20212;-76
2021/07/19 02:53:37;;;;;;;7.50;5.03;;;17.20;99.90;;;;;;4147813;28;20270;-76
2021/07/19 02:55:41;;;;;;;7.33;4.47;;;17.20;99.90;;;;;;4147765;28;20627;-76
2021/07/19 02:57:43;;;;;;;7.20;5.00;;;17.20;99.90;;;;;;4147166;28;20282;-77
2021/07/19 02:59:45;;;;;;;8.57;5.00;;;17.20;99.90;;;;;;4148706;28;20231;-77
2021/07/19 03:01:50;;;;;;;10.10;5.50;;;17.10;99.90;;;;;;4136540;28;20209;-76
2021/07/19 03:03:54;;;;;;;7.93;4.87;;;17.10;99.90;;;;;;4148303;28;20219;-76
2021/07/19 03:05:59;;;;;;;10.83;5.23;;;17.10;99.90;;;;;;4132002;28;20205;-77
2021/07/19 03:08:04;;;;;;;9.43;5.27;;;17.10;99.90;;;;;;4131507;28;20255;-77
2021/07/19 03:10:10;;;;;;;8.43;5.30;;;17.10;99.90;;;;;;4131978;28;20756;-76
2021/07/19 03:12:13;;;;;;;8.00;5.30;;;17.10;99.90;;;;;;4132408;28;20223;-76
2021/07/19 03:14:18;;;;;;;9.27;5.43;;;17.10;99.90;;;;;;4145736;28;20584;-77
2021/07/19 03:16:21;;;;;;;10.97;5.93;;;17.10;99.90;;;;;;4148174;28;20733;-76
2021/07/19 03:18:24;;;;;;;9.10;5.00;;;17.10;99.90;;;;;;4142206;28;20580;-76
2021/07/19 03:20:27;;;;;;;9.90;5.93;;;17.10;99.90;;;;;;4131878;28;20263;-76
2021/07/19 03:22:30;;;;;;;10.40;5.73;;;17.10;99.90;;;;;;4131771;28;20212;-76
2021/07/19 03:24:35;;;;;;;8.70;5.60;;;17.10;99.90;;;;;;4145959;28;20751;-76
2021/07/19 03:26:39;;;;;;;10.87;6.10;;;17.10;99.90;;;;;;4140098;28;20242;-77
2021/07/19 03:28:42;;;;;;;13.43;6.30;;;17.10;99.90;;;;;;4137784;28;20279;-76
2021/07/19 03:30:45;;;;;;;10.03;6.13;;;17.10;99.90;;;;;;4148349;28;20281;-76
2021/07/19 03:32:51;;;;;;;12.07;6.63;;;17.00;99.90;;;;;;4147493;28;20207;-76
2021/07/19 03:34:54;;;;;;;9.37;5.83;;;17.10;99.90;;;;;;4146405;28;20204;-77
2021/07/19 03:36:56;;;;;;;12.33;6.00;;;17.00;99.90;;;;;;4140823;28;20215;-76
2021/07/19 03:38:59;;;;;;;9.60;6.13;;;17.00;99.90;;;;;;4148167;28;20230;-76
2021/07/19 03:41:02;;;;;;;13.00;5.63;;;17.00;99.90;;;;;;4147600;28;20232;-78
2021/07/19 03:43:04;;;;;;;12.27;6.40;;;17.00;99.90;;;;;;4146925;28;20246;-78
2021/07/19 03:45:07;;;;;;;11.27;6.30;;;17.00;99.90;;;;;;4151470;28;20215;-78
2021/07/19 03:47:11;;;;;;;12.33;6.00;;;17.00;99.90;;;;;;4147687;28;20212;-78
2021/07/19 03:49:14;;;;;;;13.57;6.37;;;17.00;99.90;;;;;;4147640;28;20215;-78
2021/07/19 03:51:16;;;;;;;11.30;6.07;;;16.90;99.90;;;;;;4134540;28;20240;-78
2021/07/19 03:53:19;;;;;;;10.30;5.53;;;16.90;99.90;;;;;;4131334;28;20217;-78
2021/07/19 03:55:21;;;;;;;10.00;5.97;;;17.00;99.90;;;;;;4142397;28;20219;-78
2021/07/19 03:57:24;;;;;;;10.37;6.00;;;16.90;99.90;;;;;;4148893;28;20266;-78
2021/07/19 03:59:28;;;;;;;9.80;5.33;;;16.90;99.90;;;;;;4147729;28;20215;-80
2021/07/19 04:01:30;;;;;;;11.00;5.80;;;16.90;99.90;;;;;;4141208;28;20207;-78
2021/07/19 04:03:45;;;;;;;8.70;5.50;;;16.90;99.90;;;;;;4148304;28;20243;-78
2021/07/19 04:05:50;;;;;;;11.17;5.73;;;16.90;99.90;;;;;;4147366;28;20231;-78
2021/07/19 04:07:52;;;;;;;12.60;6.10;;;16.90;99.90;;;;;;4146241;28;20207;-79
2021/07/19 04:09:57;;;;;;;13.80;6.20;;;16.80;99.90;;;;;;4139778;28;20241;-78
2021/07/19 04:12:00;;;;;;;11.23;5.50;;;16.80;99.90;;;;;;4146863;28;20221;-78
2021/07/19 04:14:03;;;;;;;10.43;5.30;;;16.80;99.90;;;;;;4147704;28;20207;-78
2021/07/19 04:16:06;;;;;;;13.77;5.47;;;16.80;99.90;;;;;;4140430;28;20294;-78
2021/07/19 04:18:08;;;;;;;10.73;5.33;;;16.80;99.90;;;;;;4131678;28;20208;-78
2021/07/19 04:20:12;;;;;;;8.80;4.70;;;16.80;99.90;;;;;;4141680;28;20235;-78
2021/07/19 04:22:15;;;;;;;12.57;5.77;;;16.70;99.90;;;;;;4145781;28;20231;-78
2021/07/19 04:24:16;;;;;;;10.80;4.87;;;16.70;99.90;;;;;;4145297;28;20204;-79
2021/07/19 04:26:18;;;;;;;13.00;5.00;;;16.80;99.90;;;;;;4140987;28;20261;-78
2021/07/19 04:28:23;;;;;;;13.30;4.87;;;16.70;99.90;;;;;;4147039;28;20273;-76
2021/07/19 04:30:33;;;;;;;10.83;5.03;;;16.70;99.90;;;;;;4146901;28;20258;-77
2021/07/19 04:32:35;;;;;;;10.73;5.00;;;16.70;99.90;;;;;;4146572;28;20217;-77
2021/07/19 04:34:39;;;;;;;10.33;4.70;;;16.70;99.90;;;;;;4144290;28;20223;-78
2021/07/19 04:36:41;;;;;;;13.37;4.90;;;16.70;99.90;;;;;;4147292;28;20498;-79
2021/07/19 04:38:45;;;;;;;11.07;4.57;;;16.60;99.90;;;;;;4155180;28;20298;-77
2021/07/19 04:40:48;;;;;;;13.67;4.70;;;16.60;99.90;;;;;;4147728;28;20318;-78
2021/07/19 04:42:50;;;;;;;12.47;4.67;;;16.60;99.90;;;;;;4155321;28;20207;-78
2021/07/19 04:44:52;;;;;;;14.00;4.43;;;16.50;99.90;;;;;;4148917;28;20211;-78
2021/07/19 04:46:55;;;;;;;14.23;4.77;;;16.50;99.90;;;;;;4143506;28;20222;-78
2021/07/19 04:48:57;;;;;;;14.00;4.77;;;16.50;99.90;;;;;;4144500;28;20223;-79
2021/07/19 04:50:59;;;;;;;13.67;4.77;;;16.50;99.90;;;;;;4131331;28;20689;-79
2021/07/19 04:53:01;;;;;;;9.83;4.77;;;16.40;99.90;;;;;;4149147;28;20216;-78
2021/07/19 04:55:04;;;;;;;11.47;5.00;;;16.40;99.90;;;;;;4148360;28;20272;-78
2021/07/19 04:57:08;;;;;;;11.53;4.90;;;16.40;99.90;;;;;;4145489;28;20206;-78
2021/07/19 04:59:12;;;;;;;9.47;4.60;;;16.40;99.90;;;;;;4147442;28;20623;-78
2021/07/19 05:01:16;;;;;;;11.33;4.50;;;16.40;99.90;;;;;;4147436;28;20232;-78
2021/07/19 05:03:20;;;;;;;16.97;5.10;;;16.40;99.90;;;;;;4147546;28;20214;-77
2021/07/19 05:05:25;;;;;;;11.30;5.10;;;16.40;99.90;;;;;;4145319;28;20600;-78
2021/07/19 05:07:32;;;;;;;12.23;4.60;;;16.40;99.90;;;;;;4146254;28;20704;-78
2021/07/19 05:09:40;;;;;;;11.43;4.90;;;16.40;99.90;;;;;;4150065;28;20204;-78
2021/07/19 05:11:43;;;;;;;10.70;4.80;;;16.40;99.90;;;;;;4148110;28;20730;-77
2021/07/19 05:13:45;;;;;;;10.67;4.97;;;16.40;99.90;;;;;;4146666;28;20245;-78
2021/07/19 05:15:47;;;;;;;9.07;4.20;;;16.40;99.90;;;;;;4138060;28;20644;-78
2021/07/19 05:17:50;;;;;;;9.27;4.47;;;16.50;99.90;;;;;;4144866;28;20668;-77
2021/07/19 05:19:54;;;;;;;13.07;5.00;;;16.50;99.90;;;;;;4147638;28;20242;-78
2021/07/19 05:21:55;;;;;;;13.40;4.50;;;16.50;99.90;;;;;;4148382;28;20226;-78
2021/07/19 05:23:57;;;;;;;10.73;4.43;;;16.50;99.90;;;;;;4153251;28;20240;-79
2021/07/19 05:25:59;;;;;;;13.03;4.67;;;16.50;99.90;;;;;;4139263;28;20637;-78
2021/07/19 05:28:10;;;;;;;9.77;4.43;;;16.60;99.90;;;;;;4147170;28;20208;-77
2021/07/19 05:30:12;;;;;;;9.60;4.70;;;16.60;99.90;;;;;;4146332;28;20242;-78
2021/07/19 05:32:14;;;;;;;7.23;4.27;;;16.60;99.90;;;;;;4142899;28;20636;-77
2021/07/19 05:34:20;;;;;;;10.83;4.57;;;16.60;99.90;;;;;;4146170;28;20211;-77
2021/07/19 05:36:23;;;;;;;9.23;4.90;;;16.70;99.90;;;;;;4133619;28;20307;-77
2021/07/19 05:38:25;;;;;;;10.87;4.67;;;16.70;99.90;;;;;;4147129;28;20207;-78
2021/07/19 05:40:27;;;;;;;8.00;4.17;;;16.70;99.90;;;;;;4146028;28;20271;-78
2021/07/19 05:42:29;;;;;;;9.30;4.17;;;16.70;99.90;;;;;;4150084;28;20249;-79
2021/07/19 05:44:30;;;;;;;7.57;4.50;;;16.70;99.90;;;;;;4146260;28;20204;-77
2021/07/19 05:46:33;;;;;;;9.47;4.33;;;16.80;99.90;;;;;;4145078;28;20212;-77
2021/07/19 05:48:37;;;;;;;9.07;4.03;;;16.80;99.90;;;;;;4144389;28;20226;-78
2021/07/19 05:50:39;;;;;;;8.40;3.90;;;16.90;99.90;;;;;;4146282;28;20239;-77
2021/07/19 05:52:42;;;;;;;9.87;4.20;;;16.90;99.90;;;;;;4145209;28;20632;-77
2021/07/19 05:54:44;;;;;;;10.67;3.97;;;16.90;99.90;;;;;;4146914;28;20219;-78
2021/07/19 05:56:45;;;;;;;9.50;4.30;;;17.00;99.90;;;;;;4148649;28;20215;-78
2021/07/19 05:58:47;;;;;;;7.40;3.73;;;17.10;99.90;;;;;;4154719;28;20638;-78
2021/07/19 06:00:49;;;;;;;9.87;4.63;;;17.10;99.90;;;;;;4142153;28;20232;-77
2021/07/19 06:02:50;;;;;;;7.47;3.70;;;17.20;99.90;;;;;;4132688;28;20600;-77
2021/07/19 06:04:52;;;;;;;10.33;4.57;;;17.20;99.90;;;;;;4133987;28;20212;-77
2021/07/19 06:06:54;;;;;;;10.97;4.20;;;17.20;99.90;;;;;;4132978;28;20262;-77
2021/07/19 06:08:57;;;;;;;7.93;3.80;;;17.20;99.90;;;;;;4145189;28;20208;-75
2021/07/19 06:10:59;;;;;;;10.57;4.43;;;17.30;99.90;;;;;;4148260;28;20290;-78
2021/07/19 06:13:01;;;;;;;9.13;4.10;;;17.30;99.90;;;;;;4145271;28;20236;-77
2021/07/19 06:15:04;;;;;;;10.90;4.33;;;17.30;99.90;;;;;;4149522;28;20212;-77
2021/07/19 06:17:05;;;;;;;7.77;4.10;;;17.40;99.90;;;;;;4149034;28;20265;-77
2021/07/19 06:19:07;;;;;;;6.93;3.47;;;17.40;99.90;;;;;;4145499;28;20287;-77
2021/07/19 06:21:09;;;;;;;10.57;4.33;;;17.40;99.90;;;;;;4151552;28;20228;-77
2021/07/19 06:23:11;;;;;;;11.73;4.30;;;17.50;99.90;;;;;;4147383;28;20618;-78
2021/07/19 06:25:16;;;;;;;9.50;3.80;;;17.50;99.90;;;;;;4137796;28;20223;-77
2021/07/19 06:27:19;;;;;;;12.20;4.57;;;17.60;99.90;;;;;;4136625;28;20216;-77
2021/07/19 06:29:20;;;;;;;9.60;4.00;;;17.60;99.80;;;;;;4142307;28;20266;-78
2021/07/19 06:31:22;;;;;;;9.90;3.83;;;17.60;99.10;;;;;;4150010;28;20244;-77
2021/07/19 06:33:24;;;;;;;7.67;4.00;;;17.60;98.40;;;;;;4148575;28;20278;-77
2021/07/19 06:35:26;;;;;;;10.87;4.17;;;17.60;98.40;;;;;;4146100;28;20286;-78
2021/07/19 06:37:28;;;;;;;8.13;3.77;;;17.60;98.40;;;;;;4138144;28;20238;-78
2021/07/19 06:39:30;;;;;;;7.40;3.90;;;17.70;98.10;;;;;;4148153;28;20653;-78
2021/07/19 06:41:33;;;;;;;8.50;3.70;;;17.70;97.20;;;;;;4148906;28;20219;-76
2021/07/19 06:43:34;;;;;;;6.57;3.50;;;17.60;96.60;;;;;;4147338;28;20270;-76
2021/07/19 06:45:36;;;;;;;5.77;3.07;;;17.60;96.00;;;;;;4137949;28;20314;-76
2021/07/19 06:47:39;;;;;;;6.80;3.43;;;17.60;96.90;;;;;;4132183;28;20211;-76
2021/07/19 06:49:41;;;;;;;8.17;3.40;;;17.60;97.20;;;;;;4145149;28;20731;-77
2021/07/19 06:51:43;;;;;;;8.67;3.67;;;17.70;97.10;;;;;;4147960;28;20232;-76
2021/07/19 06:53:44;;;;;;;7.20;3.50;;;17.70;96.80;;;;;;4148996;28;20204;-78
2021/07/19 06:55:46;;;;;;;5.43;3.27;;;17.80;96.90;;;;;;4144208;28;20250;-76
2021/07/19 06:57:49;;;;;;;7.93;3.37;;;17.80;96.90;;;;;;4148626;28;20208;-76
2021/07/19 06:59:51;;;;;;;9.10;3.53;;;17.80;96.40;;;;;;4147598;28;20286;-77
2021/07/19 07:01:53;;;;;;;8.07;3.90;;;17.80;96.70;;;;;;4142018;28;20255;-79
2021/07/19 07:03:54;;;;;;;10.40;3.53;;;17.80;96.20;;;;;;4148134;28;20598;-78
2021/07/19 07:05:56;;;;;;;6.40;3.80;;;17.90;96.50;;;;;;4147714;28;20211;-78
2021/07/19 07:07:58;;;;;;;10.33;4.00;;;18.00;96.60;;;;;;4133969;28;20204;-78
2021/07/19 07:09:59;;;;;;;8.80;3.80;;;17.90;96.00;;;;;;4131695;28;20233;-76
2021/07/19 07:12:01;;;;;;;7.57;3.73;;;17.90;94.80;;;;;;4133426;28;20713;-76
2021/07/19 07:14:07;;;;;;;6.47;3.40;;;17.90;95.10;;;;;;4146053;28;20239;-78
2021/07/19 07:16:09;;;;;;;6.27;3.23;;;17.90;94.40;;;;;;4147702;28;20215;-77
2021/07/19 07:18:11;;;;;;;9.20;3.40;;;17.90;94.80;;;;;;4146249;28;20211;-76
2021/07/19 07:20:14;;;;;;;8.20;3.63;;;17.90;94.20;;;;;;4145543;28;20626;-76
2021/07/19 07:22:16;;;;;;;7.33;3.10;;;17.90;94.50;;;;;;4135171;28;20200;-76
2021/07/19 07:24:17;;;;;;;9.80;4.50;;;18.00;94.90;;;;;;4148139;28;20218;-77
2021/07/19 07:26:19;;;;;;;10.17;4.50;;;18.00;95.00;;;;;;4147728;28;20215;-76
2021/07/19 07:28:21;;;;;;;16.50;5.80;;;18.00;94.70;;;;;;4145866;28;20212;-76
2021/07/19 07:30:27;;;;;;;15.50;5.37;;;18.00;94.60;;;;;;4145639;28;20260;-76
2021/07/19 07:32:29;;;;;;;12.77;5.30;;;18.10;94.80;;;;;;4146804;28;20223;-76
2021/07/19 07:34:31;;;;;;;9.47;4.57;;;18.10;95.00;;;;;;4147505;28;20209;-77
2021/07/19 07:36:33;;;;;;;8.00;3.63;;;18.10;95.20;;;;;;4144076;28;20730;-77
2021/07/19 07:38:35;;;;;;;10.17;3.80;;;18.10;95.00;;;;;;4145255;28;20211;-76
2021/07/19 07:40:37;;;;;;;5.90;3.30;;;18.10;95.20;;;;;;4146637;28;20654;-76
2021/07/19 07:42:39;;;;;;;8.30;3.53;;;18.20;95.00;;;;;;4146952;28;20219;-76
2021/07/19 07:44:41;;;;;;;9.63;3.97;;;18.20;95.30;;;;;;4148288;28;20209;-76
2021/07/19 07:46:44;;;;;;;8.93;3.20;;;18.20;95.40;;;;;;4143477;28;20209;-76
2021/07/19 07:48:46;;;;;;;8.53;3.60;;;18.20;95.40;;;;;;4135084;28;20318;-77
2021/07/19 07:50:48;;;;;;;9.47;3.27;;;18.20;95.70;;;;;;4147652;28;20274;-76
2021/07/19 07:52:50;;;;;;;8.97;3.40;;;18.20;95.50;;;;;;4147798;28;20294;-76
2021/07/19 07:54:51;;;;;;;7.93;3.87;;;18.10;95.20;;;;;;4143199;28;20269;-76
2021/07/19 07:56:53;;;;;;;9.10;4.10;;;18.10;95.20;;;;;;4147600;28;20657;-76
2021/07/19 07:58:55;;;;;;;11.00;4.20;;;18.10;94.30;;;;;;4146987;28;20215;-76
2021/07/19 08:00:57;;;;;;;8.90;4.70;;;18.10;94.70;;;;;;4147455;28;20650;-77
2021/07/19 08:03:00;;;;;;;9.70;3.77;;;18.10;94.40;;;;;;4147744;28;20279;-76
2021/07/19 08:05:02;;;;;;;9.57;4.20;;;18.20;94.70;;;;;;4135299;28;20264;-76
2021/07/19 08:07:04;;;;;;;6.53;3.90;;;18.20;95.20;;;;;;4145711;28;20215;-76
2021/07/19 08:09:06;;;;;;;7.93;3.87;;;18.30;95.40;;;;;;4147826;28;20216;-76
2021/07/19 08:11:08;;;;;;;7.87;3.83;;;18.40;95.20;;;;;;4146767;28;20282;-76
2021/07/19 08:13:09;;;;;;;10.53;4.20;;;18.40;95.30;;;;;;4140263;28;20228;-76
2021/07/19 08:15:13;;;;;;;8.73;3.77;;;18.50;94.90;;;;;;4143229;28;20711;-76
2021/07/19 08:17:15;;;;;;;9.10;4.00;;;18.60;95.00;;;;;;4147584;28;20206;-77
2021/07/19 08:19:18;;;;;;;11.57;4.20;;;18.80;94.90;;;;;;4145980;28;20216;-76
2021/07/19 08:21:20;;;;;;;7.43;4.20;;;18.80;93.90;;;;;;4142941;28;20233;-77
2021/07/19 08:23:21;;;;;;;7.93;3.90;;;18.90;92.70;;;;;;4143802;28;20210;-76
2021/07/19 08:25:23;;;;;;;9.70;4.50;;;19.00;93.00;;;;;;4146629;28;20207;-77
2021/07/19 08:27:25;;;;;;;9.53;4.60;;;19.20;92.10;;;;;;4147007;28;20604;-76
2021/07/19 08:29:27;;;;;;;7.73;4.27;;;19.30;92.30;;;;;;4146703;28;20273;-76
2021/07/19 08:31:29;;;;;;;9.50;4.70;;;19.40;92.40;;;;;;4138147;28;20206;-76
2021/07/19 08:33:31;;;;;;;7.63;4.23;;;19.50;92.00;;;;;;4147710;28;20586;-78
2021/07/19 08:35:34;;;;;;;8.53;4.43;;;19.70;91.80;;;;;;4147105;28;20686;-76
2021/07/19 08:37:36;;;;;;;8.70;4.23;;;19.70;91.50;;;;;;4147211;28;20256;-77
2021/07/19 08:39:38;;;;;;;10.17;4.13;;;19.90;90.50;;;;;;4146229;28;20223;-76
2021/07/19 08:41:40;;;;;;;8.30;4.03;;;19.90;90.30;;;;;;4145320;28;20209;-76
2021/07/19 08:43:43;;;;;;;7.13;3.73;;;20.00;90.00;;;;;;4145952;28;20215;-77
2021/07/19 08:45:46;;;;;;;8.50;4.37;;;20.00;88.70;;;;;;4146800;28;20276;-76
2021/07/19 08:47:49;;;;;;;10.10;5.03;;;20.10;87.70;;;;;;4131280;28;20254;-76
2021/07/19 08:49:51;;;;;;;7.07;4.00;;;20.10;87.10;;;;;;4130409;28;20252;-76
2021/07/19 08:51:55;;;;;;;9.13;4.00;;;20.20;86.50;;;;;;4137979;28;20593;-76
2021/07/19 08:53:59;;;;;;;10.20;4.80;;;20.20;83.50;;;;;;4146350;28;20273;-76
2021/07/19 08:56:02;;;;;;;10.77;4.20;;;20.00;84.10;;;;;;4145787;28;20203;-78
2021/07/19 08:58:05;;;;;;;9.03;4.60;;;19.90;82.80;;;;;;4155931;28;20277;-76
2021/07/19 09:00:09;;;;;;;11.10;4.97;;;19.90;82.10;;;;;;4146462;28;20277;-76
2021/07/19 09:02:11;;;;;;;10.47;4.93;;;19.80;80.80;;;;;;4146605;28;20202;-76
2021/07/19 09:04:18;;;;;;;8.97;5.00;;;19.80;79.80;;;;;;4147819;28;20215;-76
2021/07/19 09:06:20;;;;;;;7.53;5.17;;;19.70;79.20;;;;;;4142696;28;20211;-76
2021/07/19 09:08:23;;;;;;;8.63;4.90;;;19.70;80.50;;;;;;4131359;28;20573;-76
2021/07/19 09:10:27;;;;;;;8.70;4.60;;;19.70;79.30;;;;;;4130192;28;20289;-77
2021/07/19 09:12:33;;;;;;;11.27;4.53;;;19.80;75.30;;;;;;4146753;28;20234;-76
2021/07/19 09:14:38;;;;;;;9.20;4.57;;;19.80;76.20;;;;;;4146609;28;20257;-76
2021/07/19 09:16:41;;;;;;;6.80;4.20;;;19.80;69.10;;;;;;4144320;28;20211;-76
2021/07/19 09:18:43;;;;;;;7.67;4.10;;;19.70;71.00;;;;;;4146829;28;20208;-77
2021/07/19 09:20:44;;;;;;;7.60;3.67;;;19.50;71.00;;;;;;4145774;28;20296;-76
2021/07/19 09:22:54;;;;;;;9.57;3.80;;;19.50;72.70;;;;;;4147508;28;20210;-76
2021/07/19 09:25:11;;;;;;;6.27;3.90;;;19.50;75.10;;;;;;4136937;28;20217;-76
2021/07/19 09:27:19;;;;;;;7.27;4.07;;;19.50;74.50;;;;;;4145128;28;20210;-76
2021/07/19 09:29:23;;;;;;;7.07;3.90;;;19.50;74.90;;;;;;4150499;28;20205;-77
2021/07/19 09:31:33;;;;;;;9.13;3.30;;;19.50;71.50;;;;;;4160770;28;20209;-77
2021/07/19 09:33:35;;;;;;;5.67;2.80;;;19.50;71.00;;;;;;4136524;28;20721;-77
2021/07/19 09:35:41;;;;;;;4.90;2.80;;;19.60;70.90;;;;;;4140435;28;20265;-77
2021/07/19 09:37:43;;;;;;;6.30;3.07;;;19.70;71.80;;;;;;4149008;28;20633;-78
2021/07/19 09:39:47;;;;;;;5.77;3.37;;;19.90;72.80;;;;;;4148178;28;20241;-76
2021/07/19 09:41:52;;;;;;;8.73;3.30;;;20.00;71.10;;;;;;4141849;28;20250;-76
2021/07/19 09:43:53;;;;;;;6.20;3.50;;;20.10;72.00;;;;;;4140583;28;20278;-77
2021/07/19 09:46:00;;;;;;;8.00;3.07;;;20.10;69.20;;;;;;4144858;28;20258;-77
2021/07/19 09:48:04;;;;;;;7.07;3.27;;;20.10;66.90;;;;;;4136845;28;20219;-76
2021/07/19 09:50:11;;;;;;;4.97;2.80;;;20.00;64.60;;;;;;4146652;28;20238;-76
2021/07/19 09:52:14;;;;;;;7.60;3.13;;;20.00;69.00;;;;;;4144432;28;20241;-76
2021/07/19 09:54:15;;;;;;;4.90;3.00;;;20.00;68.50;;;;;;4143379;28;20333;-77
2021/07/19 09:56:20;;;;;;;7.10;2.73;;;20.00;69.00;;;;;;4143348;28;20210;-76
2021/07/19 09:58:23;;;;;;;5.67;3.17;;;20.00;66.80;;;;;;4142404;28;20277;-76
2021/07/19 10:00:26;;;;;;;7.73;2.80;;;19.90;68.40;;;;;;4148086;28;20304;-76
2021/07/19 10:02:33;;;;;;;5.93;3.27;;;19.90;65.60;;;;;;4148720;28;20603;-78
2021/07/19 10:04:42;;;;;;;7.63;2.70;;;19.90;66.10;;;;;;4142883;28;20222;-76
2021/07/19 10:06:46;;;;;;;6.33;2.97;;;19.90;66.60;;;;;;4146107;28;20510;-76
2021/07/19 10:08:55;;;;;;;9.23;3.20;;;19.90;68.60;;;;;;4144556;28;20217;-77
2021/07/19 10:10:57;;;;;;;5.93;2.90;;;20.10;69.60;;;;;;4145615;28;20238;-76
2021/07/19 10:12:59;;;;;;;6.27;3.03;;;20.20;66.20;;;;;;4155172;28;20233;-76
2021/07/19 10:15:06;;;;;;;8.43;3.00;;;20.20;66.00;;;;;;4148866;28;20664;-77
2021/07/19 10:17:08;;;;;;;5.40;2.90;;;20.30;69.00;;;;;;4147607;28;20739;-77
2021/07/19 10:19:11;;;;;;;6.50;3.13;;;20.40;65.70;;;;;;4148402;28;20210;-77
2021/07/19 10:21:13;;;;;;;5.80;3.13;;;20.40;67.30;;;;;;4148440;28;20607;-76
2021/07/19 10:23:14;;;;;;;6.17;3.00;;;20.50;69.10;;;;;;4147551;28;20210;-76
2021/07/19 10:25:17;;;;;;;8.07;3.30;;;20.60;68.60;;;;;;4148477;28;20265;-77
2021/07/19 10:27:21;;;;;;;7.80;3.40;;;20.60;65.40;;;;;;4147071;28;20226;-76
2021/07/19 10:29:23;;;;;;;8.40;3.47;;;20.70;64.40;;;;;;4143777;28;20665;-77
2021/07/19 10:31:27;;;;;;;6.10;3.10;;;20.80;65.00;;;;;;4148295;28;20214;-77
2021/07/19 10:33:29;;;;;;;6.43;3.17;;;20.90;62.90;;;;;;4132054;28;20239;-77
2021/07/19 10:35:31;;;;;;;8.07;3.43;;;21.00;61.80;;;;;;4133229;28;20223;-77
2021/07/19 10:37:40;;;;;;;8.17;3.37;;;21.00;64.30;;;;;;4132798;28;20216;-76